Recent forum postings ...
Today
Change wake turbulence after filing FP
Yesterday
KLM-VA site "not responding", is my flight toast?
3 days ago
Fly KLM Mon CTL
2021-04-09
SCHEDULE FLIGHT BOEING 737
2021-04-08
Law and rules in KLM VA
2021-04-04
Flying a Tour.


 
Aircraft IdentFlightrulesType of Flight
KLM299IN
NumberType of AircraftWake turbulenceEquipmentTransponder Type
1A320MSDE3FGHIRWYLB1
Departure AerodromeDeparture Time
TAPA520
Cruising speedFlight level
N0420F230
Route
DCT KASKI A312 DOM DOM1D



Destination AerodromeTotal EETAlternative Aerodrome
TFFF0034TFFR
Other information
PBN/A1B1C1D1O1S1 DOF/210408 REG/PHRTO OPR/KL2 PER/C RMK/TCAS SIMBRIEF/KLM VA/KL299

Explanation of the IVAO flightplan

V C Bird Intl (TAPA), Antigua and Barbuda

METAR
TAPA 080300Z 08004KT 050V110 9999 FEW018 25/21 Q1015 NOSIG

WINDE at 5 mph
VISIBILITY16 miles
CONDITIONS
CLOUDSpartly cloudy
TEMP77°F (25°C)
DEWPT70°F (21°C)
HUMIDITY79%
BAROMETER1015 hPa (29.97 in Hg)

Le Lamentin (TFFF), Martinique

METAR
TFFF 080500Z AUTO 06003KT CAVOK 25/21 Q1013 NOSIG

WINDENE at 3 mph
VISIBILITYgreater than 7 miles
CONDITIONS
CLOUDSclear skies
TEMP77°F (25°C)
DEWPT70°F (21°C)
HUMIDITY79%
BAROMETER1013 hPa (29.91 in Hg)

Registration TimeGroundspeedAltitudeTransponderHeadingLongitudeLatitudeOn ground
05:12 08-04-20210 kts49 ft20007-61.793817.1382Yes
05:150 kts49 ft20007-61.793817.1382Yes
05:1812 kts61 ft2000235-61.800617.1333Yes
05:21157 kts3536 ft200084-61.745217.164No
05:24266 kts11065 ft2000157-61.547717.1542No
05:27305 kts19529 ft2000184-61.619316.9999No
05:30371 kts23011 ft2000169-61.614716.7157No
05:33368 kts23019 ft2000178-61.550616.4148No
05:36372 kts23020 ft2000164-61.488716.1142No
05:39371 kts22982 ft2000165-61.389615.8276No
05:42351 kts21690 ft2000180-61.300915.5321No
05:45342 kts11710 ft2000182-61.299115.2216No
05:48268 kts6972 ft2000180-61.301814.9706No
05:51251 kts2877 ft2000188-61.243114.7651No
05:54182 kts1998 ft2000184-61.272214.5845No
05:57140 kts1989 ft200082-61.158114.5646No
06:00129 kts453 ft200080-61.03914.5848No
06:030 kts19 ft200017-61.000414.5945Yes
06:060 kts19 ft200017-61.000414.5945Yes